Airport Name : Blackpool

Other Name : Blackpool

ICAO : EGNH

IATA : BLK

FAA :

Latitude : 53.771667

Longitude : -3.028611

Country : United Kingdom

Local Date and Time : 01 Mar 2021 00:06

 

TAF (Terminal Aerodrome Forecast)

 

METAR (METeorological Aerodrome Report)

EGNH 282050Z 05007KT CAVOK 06/03 Q1035

EGNH 282020Z 04007KT CAVOK 06/03 Q1036

To Charter a Jet Click here.